KORD/ORD METAR and TAF weather

Enter ICAO airport designator
Station Type Date Time Source
KORD METAR 2022/01/26 13:51 UTC NOAA

KORD 261351Z 25003KT 10SM FEW028 M21/M24 A3047 RMK AO2 SLP339 T12061244 $


Station Type Date Time Source
KORD Decoded METAR 2022/01/26 13:51 UTC NOAA

CHICAGO O'HARE INTERNATIONAL, IL, United States (KORD) 41-59N 087-55W 200M
Jan 26, 2022 - 08:51 AM EST / 2022.01.26 1351 UTC
Wind: from the WSW (250 degrees) at 3 MPH (3 KT):0
Visibility: 10 mile(s):0
Sky conditions: mostly clear
Temperature: -5.1 F (-20.6 C)
Dew Point: -11.9 F (-24.4 C)
Relative Humidity: 71%
Pressure (altimeter): 30.47 in. Hg (1031 hPa)
ob: KORD 261351Z 25003KT 10SM FEW028 M21/M24 A3047 RMK AO2 SLP339 T12061244
cycle: 14

Station Type Date Time Source
KORD TAF 2022/01/26 12:24 UTC NOAA

TAF KORD 261120Z 2612/2718 27006KT P6SM SKC
FM261700 22010KT P6SM FEW250
FM270400 21012G20KT P6SM SCT250
FM270800 21012G20KT P6SM SCT040 BKN150 WS020/24045KT
FM271500 24012G18KT P6SM BKN040

Example: see airport list